sensor_id;sensor_type;location;lat;lon;timestamp;P1;durP1;ratioP1;P2;durP2;ratioP2
48911;SDS011;34722;52.108;5.044;2023-04-15T00:01:38;11.70;;;6.88;;
48911;SDS011;34722;52.108;5.044;2023-04-15T00:04:04;12.05;;;8.10;;
48911;SDS011;34722;52.108;5.044;2023-04-15T00:06:30;16.38;;;8.68;;
48911;SDS011;34722;52.108;5.044;2023-04-15T00:08:55;14.10;;;6.93;;
48911;SDS011;34722;52.108;5.044;2023-04-15T00:11:36;16.15;;;7.55;;
48911;SDS011;34722;52.108;5.044;2023-04-15T00:14:02;14.18;;;7.20;;
48911;SDS011;34722;52.108;5.044;2023-04-15T00:16:28;10.85;;;7.40;;
48911;SDS011;34722;52.108;5.044;2023-04-15T00:18:57;12.88;;;7.82;;
48911;SDS011;34722;52.108;5.044;2023-04-15T00:21:23;14.35;;;8.48;;
48911;SDS011;34722;52.108;5.044;2023-04-15T00:26:58;22.35;;;10.07;;
48911;SDS011;34722;52.108;5.044;2023-04-15T00:32:00;14.48;;;7.75;;
48911;SDS011;34722;52.108;5.044;2023-04-15T00:37:08;13.55;;;8.10;;
48911;SDS011;34722;52.108;5.044;2023-04-15T00:39:34;13.30;;;8.77;;
48911;SDS011;34722;52.108;5.044;2023-04-15T00:42:03;16.33;;;9.38;;
48911;SDS011;34722;52.108;5.044;2023-04-15T00:47:58;16.75;;;9.60;;
48911;SDS011;34722;52.108;5.044;2023-04-15T00:50:27;16.30;;;9.70;;
48911;SDS011;34722;52.108;5.044;2023-04-15T00:52:56;19.02;;;9.25;;
48911;SDS011;34722;52.108;5.044;2023-04-15T00:57:57;22.92;;;9.50;;
48911;SDS011;34722;52.108;5.044;2023-04-15T01:00:29;17.58;;;8.93;;
48911;SDS011;34722;52.108;5.044;2023-04-15T01:08:46;13.75;;;8.77;;
48911;SDS011;34722;52.108;5.044;2023-04-15T01:11:12;13.52;;;9.13;;
48911;SDS011;34722;52.108;5.044;2023-04-15T01:13:39;12.63;;;8.52;;
48911;SDS011;34722;52.108;5.044;2023-04-15T01:16:05;18.15;;;8.80;;
48911;SDS011;34722;52.108;5.044;2023-04-15T01:18:44;17.75;;;9.35;;
48911;SDS011;34722;52.108;5.044;2023-04-15T01:21:11;12.32;;;7.82;;
48911;SDS011;34722;52.108;5.044;2023-04-15T01:23:37;18.13;;;9.35;;
48911;SDS011;34722;52.108;5.044;2023-04-15T01:26:06;12.35;;;7.53;;
48911;SDS011;34722;52.108;5.044;2023-04-15T01:28:36;14.45;;;8.32;;
48911;SDS011;34722;52.108;5.044;2023-04-15T01:31:09;10.55;;;7.88;;
48911;SDS011;34722;52.108;5.044;2023-04-15T01:41:34;16.48;;;8.48;;
48911;SDS011;34722;52.108;5.044;2023-04-15T01:44:12;14.32;;;9.00;;
48911;SDS011;34722;52.108;5.044;2023-04-15T01:46:44;15.50;;;8.75;;
48911;SDS011;34722;52.108;5.044;2023-04-15T01:49:10;15.73;;;8.38;;
48911;SDS011;34722;52.108;5.044;2023-04-15T01:51:36;13.35;;;8.65;;
48911;SDS011;34722;52.108;5.044;2023-04-15T01:54:02;17.38;;;8.73;;
48911;SDS011;34722;52.108;5.044;2023-04-15T01:56:28;19.38;;;9.63;;
48911;SDS011;34722;52.108;5.044;2023-04-15T01:59:09;14.15;;;8.25;;
48911;SDS011;34722;52.108;5.044;2023-04-15T02:01:34;11.32;;;8.65;;
48911;SDS011;34722;52.108;5.044;2023-04-15T02:06:36;13.98;;;8.18;;
48911;SDS011;34722;52.108;5.044;2023-04-15T02:09:02;16.85;;;8.75;;
48911;SDS011;34722;52.108;5.044;2023-04-15T02:11:28;20.00;;;9.23;;
48911;SDS011;34722;52.108;5.044;2023-04-15T02:13:57;16.98;;;9.07;;
48911;SDS011;34722;52.108;5.044;2023-04-15T02:16:22;15.27;;;8.40;;
48911;SDS011;34722;52.108;5.044;2023-04-15T02:18:48;14.18;;;9.52;;
48911;SDS011;34722;52.108;5.044;2023-04-15T02:21:25;13.43;;;8.10;;
48911;SDS011;34722;52.108;5.044;2023-04-15T02:24:10;15.95;;;9.23;;
48911;SDS011;34722;52.108;5.044;2023-04-15T02:26:36;17.73;;;8.75;;
48911;SDS011;34722;52.108;5.044;2023-04-15T02:29:02;14.23;;;9.80;;
48911;SDS011;34722;52.108;5.044;2023-04-15T02:31:28;17.52;;;9.65;;
48911;SDS011;34722;52.108;5.044;2023-04-15T02:33:54;15.35;;;9.05;;
48911;SDS011;34722;52.108;5.044;2023-04-15T02:36:20;20.88;;;10.50;;
48911;SDS011;34722;52.108;5.044;2023-04-15T02:38:46;16.17;;;10.00;;
48911;SDS011;34722;52.108;5.044;2023-04-15T02:41:12;15.27;;;9.85;;
48911;SDS011;34722;52.108;5.044;2023-04-15T02:46:09;17.85;;;9.43;;
48911;SDS011;34722;52.108;5.044;2023-04-15T02:48:38;16.00;;;9.32;;
48911;SDS011;34722;52.108;5.044;2023-04-15T02:56:37;22.80;;;11.63;;
48911;SDS011;34722;52.108;5.044;2023-04-15T03:02:04;15.57;;;10.27;;
48911;SDS011;34722;52.108;5.044;2023-04-15T03:07:18;15.27;;;10.85;;
48911;SDS011;34722;52.108;5.044;2023-04-15T03:09:44;17.42;;;10.07;;
48911;SDS011;34722;52.108;5.044;2023-04-15T03:12:32;16.65;;;9.90;;
48911;SDS011;34722;52.108;5.044;2023-04-15T03:14:57;13.98;;;9.80;;
48911;SDS011;34722;52.108;5.044;2023-04-15T03:20:54;18.58;;;10.35;;
48911;SDS011;34722;52.108;5.044;2023-04-15T03:26:45;19.48;;;10.85;;
48911;SDS011;34722;52.108;5.044;2023-04-15T03:29:12;15.27;;;10.18;;
48911;SDS011;34722;52.108;5.044;2023-04-15T03:31:38;15.35;;;10.05;;
48911;SDS011;34722;52.108;5.044;2023-04-15T03:34:04;17.73;;;10.93;;
48911;SDS011;34722;52.108;5.044;2023-04-15T03:36:30;16.67;;;11.70;;
48911;SDS011;34722;52.108;5.044;2023-04-15T03:42:39;18.88;;;10.25;;
48911;SDS011;34722;52.108;5.044;2023-04-15T03:48:06;17.00;;;11.32;;
48911;SDS011;34722;52.108;5.044;2023-04-15T03:50:33;17.25;;;10.52;;
48911;SDS011;34722;52.108;5.044;2023-04-15T03:52:58;18.80;;;9.88;;
48911;SDS011;34722;52.108;5.044;2023-04-15T03:55:33;17.20;;;11.50;;
48911;SDS011;34722;52.108;5.044;2023-04-15T03:58:03;25.23;;;12.00;;
48911;SDS011;34722;52.108;5.044;2023-04-15T04:00:28;18.40;;;11.25;;
48911;SDS011;34722;52.108;5.044;2023-04-15T04:02:58;19.77;;;10.90;;
48911;SDS011;34722;52.108;5.044;2023-04-15T04:07:59;16.35;;;10.68;;
48911;SDS011;34722;52.108;5.044;2023-04-15T04:13:00;19.92;;;11.50;;
48911;SDS011;34722;52.108;5.044;2023-04-15T04:15:27;18.92;;;12.13;;
48911;SDS011;34722;52.108;5.044;2023-04-15T04:17:55;16.15;;;11.18;;
48911;SDS011;34722;52.108;5.044;2023-04-15T04:23:25;24.73;;;10.77;;
48911;SDS011;34722;52.108;5.044;2023-04-15T04:26:11;16.83;;;11.02;;
48911;SDS011;34722;52.108;5.044;2023-04-15T04:28:37;17.80;;;11.38;;
48911;SDS011;34722;52.108;5.044;2023-04-15T04:31:21;17.02;;;9.80;;
48911;SDS011;34722;52.108;5.044;2023-04-15T04:36:23;21.40;;;11.57;;
48911;SDS011;34722;52.108;5.044;2023-04-15T04:39:03;22.17;;;11.27;;
48911;SDS011;34722;52.108;5.044;2023-04-15T04:41:31;22.65;;;11.68;;
48911;SDS011;34722;52.108;5.044;2023-04-15T04:46:49;21.77;;;12.68;;
48911;SDS011;34722;52.108;5.044;2023-04-15T04:49:19;20.73;;;10.45;;
48911;SDS011;34722;52.108;5.044;2023-04-15T04:51:45;23.42;;;11.57;;
48911;SDS011;34722;52.108;5.044;2023-04-15T04:54:26;32.38;;;13.15;;
48911;SDS011;34722;52.108;5.044;2023-04-15T04:56:52;17.70;;;11.52;;
48911;SDS011;34722;52.108;5.044;2023-04-15T04:59:18;19.52;;;11.18;;
48911;SDS011;34722;52.108;5.044;2023-04-15T05:01:45;20.17;;;12.02;;
48911;SDS011;34722;52.108;5.044;2023-04-15T05:04:12;23.65;;;12.15;;
48911;SDS011;34722;52.108;5.044;2023-04-15T05:15:54;22.05;;;11.88;;
48911;SDS011;34722;52.108;5.044;2023-04-15T05:18:23;21.35;;;11.50;;
48911;SDS011;34722;52.108;5.044;2023-04-15T05:26:32;18.10;;;11.43;;
48911;SDS011;34722;52.108;5.044;2023-04-15T05:29:04;22.70;;;11.00;;
48911;SDS011;34722;52.108;5.044;2023-04-15T05:31:31;23.55;;;11.32;;
48911;SDS011;34722;52.108;5.044;2023-04-15T05:36:26;23.65;;;11.88;;
48911;SDS011;34722;52.108;5.044;2023-04-15T05:39:14;22.83;;;12.75;;
48911;SDS011;34722;52.108;5.044;2023-04-15T05:41:55;19.30;;;11.18;;
48911;SDS011;34722;52.108;5.044;2023-04-15T05:44:39;18.92;;;10.82;;
48911;SDS011;34722;52.108;5.044;2023-04-15T05:47:08;15.68;;;10.43;;
48911;SDS011;34722;52.108;5.044;2023-04-15T05:49:35;18.40;;;10.90;;
48911;SDS011;34722;52.108;5.044;2023-04-15T05:52:19;14.52;;;9.52;;
48911;SDS011;34722;52.108;5.044;2023-04-15T05:57:55;16.33;;;9.52;;
48911;SDS011;34722;52.108;5.044;2023-04-15T06:03:30;14.07;;;9.13;;
48911;SDS011;34722;52.108;5.044;2023-04-15T06:05:56;18.98;;;10.50;;
48911;SDS011;34722;52.108;5.044;2023-04-15T06:08:22;13.43;;;9.23;;
48911;SDS011;34722;52.108;5.044;2023-04-15T06:14:11;13.30;;;9.35;;
48911;SDS011;34722;52.108;5.044;2023-04-15T06:16:39;11.13;;;7.97;;
48911;SDS011;34722;52.108;5.044;2023-04-15T06:19:05;13.88;;;8.65;;
48911;SDS011;34722;52.108;5.044;2023-04-15T06:21:31;13.63;;;8.55;;
48911;SDS011;34722;52.108;5.044;2023-04-15T06:23:57;11.73;;;8.82;;
48911;SDS011;34722;52.108;5.044;2023-04-15T06:26:28;12.20;;;8.80;;
48911;SDS011;34722;52.108;5.044;2023-04-15T06:28:57;12.60;;;8.52;;
48911;SDS011;34722;52.108;5.044;2023-04-15T06:31:35;12.80;;;8.80;;
48911;SDS011;34722;52.108;5.044;2023-04-15T06:34:01;11.07;;;8.82;;
48911;SDS011;34722;52.108;5.044;2023-04-15T06:36:27;11.50;;;9.30;;
48911;SDS011;34722;52.108;5.044;2023-04-15T06:38:52;12.45;;;9.10;;
48911;SDS011;34722;52.108;5.044;2023-04-15T06:41:18;10.40;;;9.07;;
48911;SDS011;34722;52.108;5.044;2023-04-15T06:43:44;11.15;;;9.13;;
48911;SDS011;34722;52.108;5.044;2023-04-15T06:46:13;12.88;;;9.48;;
48911;SDS011;34722;52.108;5.044;2023-04-15T06:48:39;11.30;;;10.05;;
48911;SDS011;34722;52.108;5.044;2023-04-15T06:51:20;12.25;;;10.05;;
48911;SDS011;34722;52.108;5.044;2023-04-15T06:53:50;11.20;;;9.40;;
48911;SDS011;34722;52.108;5.044;2023-04-15T06:56:36;11.52;;;10.27;;
48911;SDS011;34722;52.108;5.044;2023-04-15T06:59:08;12.25;;;9.88;;
48911;SDS011;34722;52.108;5.044;2023-04-15T07:01:33;11.85;;;10.13;;
48911;SDS011;34722;52.108;5.044;2023-04-15T07:04:06;11.95;;;10.73;;
48911;SDS011;34722;52.108;5.044;2023-04-15T07:06:31;13.02;;;10.57;;
48911;SDS011;34722;52.108;5.044;2023-04-15T07:08:57;11.38;;;10.13;;
48911;SDS011;34722;52.108;5.044;2023-04-15T07:11:29;13.43;;;10.27;;
48911;SDS011;34722;52.108;5.044;2023-04-15T07:18:58;12.68;;;11.38;;
48911;SDS011;34722;52.108;5.044;2023-04-15T07:27:25;13.43;;;11.13;;
48911;SDS011;34722;52.108;5.044;2023-04-15T07:30:01;14.60;;;12.27;;
48911;SDS011;34722;52.108;5.044;2023-04-15T07:32:26;12.32;;;10.60;;
48911;SDS011;34722;52.108;5.044;2023-04-15T07:42:57;11.57;;;10.43;;
48911;SDS011;34722;52.108;5.044;2023-04-15T07:45:26;11.93;;;10.68;;
48911;SDS011;34722;52.108;5.044;2023-04-15T07:51:05;10.82;;;9.70;;
48911;SDS011;34722;52.108;5.044;2023-04-15T07:53:49;10.43;;;9.40;;
48911;SDS011;34722;52.108;5.044;2023-04-15T07:56:15;9.68;;;8.63;;
48911;SDS011;34722;52.108;5.044;2023-04-15T07:59:08;9.52;;;8.27;;
48911;SDS011;34722;52.108;5.044;2023-04-15T08:04:41;9.00;;;8.10;;
48911;SDS011;34722;52.108;5.044;2023-04-15T08:07:10;9.50;;;8.48;;
48911;SDS011;34722;52.108;5.044;2023-04-15T08:09:36;8.27;;;7.53;;
48911;SDS011;34722;52.108;5.044;2023-04-15T08:12:01;9.25;;;8.35;;
48911;SDS011;34722;52.108;5.044;2023-04-15T08:14:28;11.57;;;7.57;;
48911;SDS011;34722;52.108;5.044;2023-04-15T08:20:16;9.68;;;7.70;;
48911;SDS011;34722;52.108;5.044;2023-04-15T08:22:41;8.95;;;7.60;;
48911;SDS011;34722;52.108;5.044;2023-04-15T08:25:11;13.13;;;8.68;;
48911;SDS011;34722;52.108;5.044;2023-04-15T08:27:45;9.07;;;8.18;;
48911;SDS011;34722;52.108;5.044;2023-04-15T08:36:14;10.98;;;9.10;;
48911;SDS011;34722;52.108;5.044;2023-04-15T08:45:20;12.43;;;9.88;;
48911;SDS011;34722;52.108;5.044;2023-04-15T08:47:51;11.00;;;9.32;;
48911;SDS011;34722;52.108;5.044;2023-04-15T08:50:21;14.60;;;9.70;;
48911;SDS011;34722;52.108;5.044;2023-04-15T08:52:53;10.88;;;8.85;;
48911;SDS011;34722;52.108;5.044;2023-04-15T08:55:20;11.63;;;9.43;;
48911;SDS011;34722;52.108;5.044;2023-04-15T09:00:31;10.15;;;7.85;;
48911;SDS011;34722;52.108;5.044;2023-04-15T09:05:32;8.77;;;7.88;;
48911;SDS011;34722;52.108;5.044;2023-04-15T09:08:05;10.73;;;8.00;;
48911;SDS011;34722;52.108;5.044;2023-04-15T09:13:08;8.63;;;6.03;;
48911;SDS011;34722;52.108;5.044;2023-04-15T09:15:35;7.25;;;5.90;;
48911;SDS011;34722;52.108;5.044;2023-04-15T09:18:03;8.10;;;6.00;;
48911;SDS011;34722;52.108;5.044;2023-04-15T09:20:28;7.70;;;6.18;;
48911;SDS011;34722;52.108;5.044;2023-04-15T09:22:54;8.35;;;5.50;;
48911;SDS011;34722;52.108;5.044;2023-04-15T09:25:24;6.07;;;5.40;;
48911;SDS011;34722;52.108;5.044;2023-04-15T09:28:05;7.72;;;5.43;;
48911;SDS011;34722;52.108;5.044;2023-04-15T09:30:31;7.40;;;5.60;;
48911;SDS011;34722;52.108;5.044;2023-04-15T09:33:10;7.60;;;5.18;;
48911;SDS011;34722;52.108;5.044;2023-04-15T09:35:39;6.63;;;5.57;;
48911;SDS011;34722;52.108;5.044;2023-04-15T09:38:08;7.82;;;6.07;;
48911;SDS011;34722;52.108;5.044;2023-04-15T09:40:39;9.45;;;6.55;;
48911;SDS011;34722;52.108;5.044;2023-04-15T09:46:14;8.05;;;6.07;;
48911;SDS011;34722;52.108;5.044;2023-04-15T10:05:29;4.05;;;3.40;;
48911;SDS011;34722;52.108;5.044;2023-04-15T10:07:55;4.45;;;3.25;;
48911;SDS011;34722;52.108;5.044;2023-04-15T10:10:22;6.05;;;3.65;;
48911;SDS011;34722;52.108;5.044;2023-04-15T10:13:06;4.57;;;3.75;;
48911;SDS011;34722;52.108;5.044;2023-04-15T10:18:14;4.78;;;3.95;;
48911;SDS011;34722;52.108;5.044;2023-04-15T10:24:05;3.78;;;3.25;;
48911;SDS011;34722;52.108;5.044;2023-04-15T10:31:43;5.10;;;4.60;;
48911;SDS011;34722;52.108;5.044;2023-04-15T10:49:56;7.90;;;5.93;;
48911;SDS011;34722;52.108;5.044;2023-04-15T11:32:42;6.78;;;6.07;;
48911;SDS011;34722;52.108;5.044;2023-04-15T11:46:17;5.45;;;4.82;;
48911;SDS011;34722;52.108;5.044;2023-04-15T12:17:33;4.53;;;3.75;;
48911;SDS011;34722;52.108;5.044;2023-04-15T12:19:59;5.13;;;4.68;;
48911;SDS011;34722;52.108;5.044;2023-04-15T12:22:36;7.57;;;4.10;;
48911;SDS011;34722;52.108;5.044;2023-04-15T12:36:58;7.70;;;4.22;;
48911;SDS011;34722;52.108;5.044;2023-04-15T12:42:47;5.47;;;4.13;;
48911;SDS011;34722;52.108;5.044;2023-04-15T12:47:49;5.75;;;4.07;;
48911;SDS011;34722;52.108;5.044;2023-04-15T12:50:27;7.25;;;4.30;;
48911;SDS011;34722;52.108;5.044;2023-04-15T12:52:53;7.07;;;4.10;;
48911;SDS011;34722;52.108;5.044;2023-04-15T12:55:19;5.10;;;3.70;;
48911;SDS011;34722;52.108;5.044;2023-04-15T12:57:53;5.03;;;3.50;;
48911;SDS011;34722;52.108;5.044;2023-04-15T13:00:19;4.95;;;3.25;;
48911;SDS011;34722;52.108;5.044;2023-04-15T13:02:54;5.43;;;3.03;;
48911;SDS011;34722;52.108;5.044;2023-04-15T13:05:26;4.82;;;3.08;;
48911;SDS011;34722;52.108;5.044;2023-04-15T13:07:52;4.13;;;2.90;;
48911;SDS011;34722;52.108;5.044;2023-04-15T13:10:19;6.20;;;3.35;;
48911;SDS011;34722;52.108;5.044;2023-04-15T13:12:46;5.95;;;3.40;;
48911;SDS011;34722;52.108;5.044;2023-04-15T13:15:25;4.85;;;3.42;;
48911;SDS011;34722;52.108;5.044;2023-04-15T13:20:39;7.35;;;3.78;;
48911;SDS011;34722;52.108;5.044;2023-04-15T13:23:08;6.90;;;4.18;;
48911;SDS011;34722;52.108;5.044;2023-04-15T13:25:37;3.70;;;2.28;;
48911;SDS011;34722;52.108;5.044;2023-04-15T13:28:03;5.47;;;2.83;;
48911;SDS011;34722;52.108;5.044;2023-04-15T13:45:31;4.93;;;2.30;;
48911;SDS011;34722;52.108;5.044;2023-04-15T13:48:09;3.53;;;2.22;;
48911;SDS011;34722;52.108;5.044;2023-04-15T13:50:35;6.88;;;2.55;;
48911;SDS011;34722;52.108;5.044;2023-04-15T14:00:39;4.85;;;2.45;;
48911;SDS011;34722;52.108;5.044;2023-04-15T14:03:05;2.30;;;1.70;;
48911;SDS011;34722;52.108;5.044;2023-04-15T14:05:31;1.88;;;1.77;;
48911;SDS011;34722;52.108;5.044;2023-04-15T14:07:58;3.40;;;1.98;;
48911;SDS011;34722;52.108;5.044;2023-04-15T14:10:24;5.25;;;2.08;;
48911;SDS011;34722;52.108;5.044;2023-04-15T14:12:50;2.83;;;2.00;;
48911;SDS011;34722;52.108;5.044;2023-04-15T14:15:20;4.72;;;1.67;;
48911;SDS011;34722;52.108;5.044;2023-04-15T14:17:46;3.00;;;1.50;;
48911;SDS011;34722;52.108;5.044;2023-04-15T14:20:12;2.47;;;1.50;;
48911;SDS011;34722;52.108;5.044;2023-04-15T14:22:38;1.95;;;1.85;;
48911;SDS011;34722;52.108;5.044;2023-04-15T14:25:05;2.95;;;1.60;;
48911;SDS011;34722;52.108;5.044;2023-04-15T14:27:31;2.60;;;1.70;;
48911;SDS011;34722;52.108;5.044;2023-04-15T14:29:56;2.80;;;1.90;;
48911;SDS011;34722;52.108;5.044;2023-04-15T14:32:24;4.70;;;2.00;;
48911;SDS011;34722;52.108;5.044;2023-04-15T14:34:50;7.60;;;2.80;;
48911;SDS011;34722;52.108;5.044;2023-04-15T14:37:16;5.55;;;1.98;;
48911;SDS011;34722;52.108;5.044;2023-04-15T14:39:45;7.03;;;2.10;;
48911;SDS011;34722;52.108;5.044;2023-04-15T14:42:10;3.65;;;2.53;;
48911;SDS011;34722;52.108;5.044;2023-04-15T14:44:36;6.20;;;2.10;;
48911;SDS011;34722;52.108;5.044;2023-04-15T14:47:03;4.53;;;2.08;;
48911;SDS011;34722;52.108;5.044;2023-04-15T14:49:31;3.53;;;1.95;;
48911;SDS011;34722;52.108;5.044;2023-04-15T14:51:57;4.25;;;1.98;;
48911;SDS011;34722;52.108;5.044;2023-04-15T14:54:23;5.88;;;1.88;;
48911;SDS011;34722;52.108;5.044;2023-04-15T14:56:52;3.90;;;1.95;;
48911;SDS011;34722;52.108;5.044;2023-04-15T14:59:33;6.03;;;1.85;;
48911;SDS011;34722;52.108;5.044;2023-04-15T15:02:07;4.43;;;2.20;;
48911;SDS011;34722;52.108;5.044;2023-04-15T15:04:35;4.93;;;1.92;;
48911;SDS011;34722;52.108;5.044;2023-04-15T15:07:20;9.63;;;2.42;;
48911;SDS011;34722;52.108;5.044;2023-04-15T15:09:56;7.20;;;2.97;;
48911;SDS011;34722;52.108;5.044;2023-04-15T15:12:23;9.00;;;2.22;;
48911;SDS011;34722;52.108;5.044;2023-04-15T15:14:53;5.40;;;2.20;;
48911;SDS011;34722;52.108;5.044;2023-04-15T15:17:19;5.13;;;1.90;;
48911;SDS011;34722;52.108;5.044;2023-04-15T15:19:45;5.07;;;1.65;;
48911;SDS011;34722;52.108;5.044;2023-04-15T15:22:11;2.67;;;2.03;;
48911;SDS011;34722;52.108;5.044;2023-04-15T15:24:38;3.22;;;1.77;;
48911;SDS011;34722;52.108;5.044;2023-04-15T15:27:08;5.80;;;2.40;;
48911;SDS011;34722;52.108;5.044;2023-04-15T15:29:34;9.43;;;2.28;;
48911;SDS011;34722;52.108;5.044;2023-04-15T15:48:37;5.63;;;1.83;;
48911;SDS011;34722;52.108;5.044;2023-04-15T15:51:03;2.70;;;1.83;;
48911;SDS011;34722;52.108;5.044;2023-04-15T15:53:29;8.60;;;1.85;;
48911;SDS011;34722;52.108;5.044;2023-04-15T15:55:58;6.85;;;2.10;;
48911;SDS011;34722;52.108;5.044;2023-04-15T15:58:36;5.45;;;1.90;;
48911;SDS011;34722;52.108;5.044;2023-04-15T16:01:05;5.35;;;1.73;;
48911;SDS011;34722;52.108;5.044;2023-04-15T16:03:34;8.27;;;3.50;;
48911;SDS011;34722;52.108;5.044;2023-04-15T16:06:00;6.95;;;1.88;;
48911;SDS011;34722;52.108;5.044;2023-04-15T16:08:26;8.35;;;2.42;;
48911;SDS011;34722;52.108;5.044;2023-04-15T16:10:55;7.10;;;2.78;;
48911;SDS011;34722;52.108;5.044;2023-04-15T16:13:27;6.55;;;1.85;;
48911;SDS011;34722;52.108;5.044;2023-04-15T16:15:56;10.20;;;3.40;;
48911;SDS011;34722;52.108;5.044;2023-04-15T16:18:27;8.32;;;3.13;;
48911;SDS011;34722;52.108;5.044;2023-04-15T16:20:57;6.03;;;1.30;;
48911;SDS011;34722;52.108;5.044;2023-04-15T16:23:28;10.32;;;2.00;;
48911;SDS011;34722;52.108;5.044;2023-04-15T17:26:09;3.95;;;2.25;;
48911;SDS011;34722;52.108;5.044;2023-04-15T17:28:43;9.82;;;2.10;;
48911;SDS011;34722;52.108;5.044;2023-04-15T17:31:49;8.82;;;2.03;;
48911;SDS011;34722;52.108;5.044;2023-04-15T17:34:15;10.93;;;1.85;;
48911;SDS011;34722;52.108;5.044;2023-04-15T17:36:40;11.95;;;2.63;;
48911;SDS011;34722;52.108;5.044;2023-04-15T17:39:09;12.52;;;2.17;;
48911;SDS011;34722;52.108;5.044;2023-04-15T17:41:35;4.78;;;1.70;;
48911;SDS011;34722;52.108;5.044;2023-04-15T17:44:02;6.18;;;2.05;;
48911;SDS011;34722;52.108;5.044;2023-04-15T17:46:28;5.05;;;1.80;;
48911;SDS011;34722;52.108;5.044;2023-04-15T17:48:55;10.50;;;2.45;;
48911;SDS011;34722;52.108;5.044;2023-04-15T17:51:22;14.27;;;2.30;;
48911;SDS011;34722;52.108;5.044;2023-04-15T17:53:55;8.05;;;1.95;;
48911;SDS011;34722;52.108;5.044;2023-04-15T17:56:56;7.57;;;1.92;;
48911;SDS011;34722;52.108;5.044;2023-04-15T17:59:31;9.40;;;1.70;;
48911;SDS011;34722;52.108;5.044;2023-04-15T18:02:00;9.75;;;2.70;;
48911;SDS011;34722;52.108;5.044;2023-04-15T18:04:32;12.13;;;2.40;;
48911;SDS011;34722;52.108;5.044;2023-04-15T18:07:00;8.52;;;2.15;;
48911;SDS011;34722;52.108;5.044;2023-04-15T18:09:29;4.85;;;1.88;;
48911;SDS011;34722;52.108;5.044;2023-04-15T18:12:03;10.32;;;1.70;;
48911;SDS011;34722;52.108;5.044;2023-04-15T18:14:31;5.32;;;1.50;;
48911;SDS011;34722;52.108;5.044;2023-04-15T18:17:03;7.25;;;1.30;;
48911;SDS011;34722;52.108;5.044;2023-04-15T18:19:49;8.30;;;1.58;;
48911;SDS011;34722;52.108;5.044;2023-04-15T18:22:18;11.25;;;2.38;;
48911;SDS011;34722;52.108;5.044;2023-04-15T18:24:49;8.02;;;1.58;;
48911;SDS011;34722;52.108;5.044;2023-04-15T18:27:22;7.90;;;1.80;;
48911;SDS011;34722;52.108;5.044;2023-04-15T18:30:07;7.32;;;1.70;;
48911;SDS011;34722;52.108;5.044;2023-04-15T19:04:17;6.60;;;2.20;;
48911;SDS011;34722;52.108;5.044;2023-04-15T19:06:49;15.32;;;2.30;;
48911;SDS011;34722;52.108;5.044;2023-04-15T19:09:37;7.50;;;1.45;;
48911;SDS011;34722;52.108;5.044;2023-04-15T19:12:12;10.90;;;2.10;;
48911;SDS011;34722;52.108;5.044;2023-04-15T19:14:45;9.68;;;2.17;;
48911;SDS011;34722;52.108;5.044;2023-04-15T19:17:22;9.23;;;2.00;;
48911;SDS011;34722;52.108;5.044;2023-04-15T19:22:25;17.45;;;3.22;;
48911;SDS011;34722;52.108;5.044;2023-04-15T19:25:21;15.23;;;2.92;;
48911;SDS011;34722;52.108;5.044;2023-04-15T19:31:29;7.95;;;2.10;;
48911;SDS011;34722;52.108;5.044;2023-04-15T19:36:42;14.38;;;2.55;;
48911;SDS011;34722;52.108;5.044;2023-04-15T19:39:22;6.43;;;2.25;;
48911;SDS011;34722;52.108;5.044;2023-04-15T19:42:00;8.70;;;2.40;;
48911;SDS011;34722;52.108;5.044;2023-04-15T19:45:04;6.15;;;1.92;;
48911;SDS011;34722;52.108;5.044;2023-04-15T19:48:01;4.22;;;2.50;;
48911;SDS011;34722;52.108;5.044;2023-04-15T19:50:49;7.15;;;1.58;;
48911;SDS011;34722;52.108;5.044;2023-04-15T19:54:20;9.00;;;2.00;;
48911;SDS011;34722;52.108;5.044;2023-04-15T20:10:44;7.35;;;1.50;;
48911;SDS011;34722;52.108;5.044;2023-04-15T20:13:17;8.38;;;1.85;;
48911;SDS011;34722;52.108;5.044;2023-04-15T20:15:58;5.90;;;1.30;;
48911;SDS011;34722;52.108;5.044;2023-04-15T20:18:24;9.30;;;1.58;;
48911;SDS011;34722;52.108;5.044;2023-04-15T20:20:50;8.57;;;2.05;;
48911;SDS011;34722;52.108;5.044;2023-04-15T20:23:17;12.85;;;2.42;;
48911;SDS011;34722;52.108;5.044;2023-04-15T20:25:43;9.23;;;1.70;;
48911;SDS011;34722;52.108;5.044;2023-04-15T20:28:10;9.27;;;1.80;;
48911;SDS011;34722;52.108;5.044;2023-04-15T20:30:36;10.38;;;3.05;;
48911;SDS011;34722;52.108;5.044;2023-04-15T20:33:03;7.90;;;2.05;;
48911;SDS011;34722;52.108;5.044;2023-04-15T20:35:32;7.57;;;1.83;;
48911;SDS011;34722;52.108;5.044;2023-04-15T20:37:58;6.97;;;1.63;;
48911;SDS011;34722;52.108;5.044;2023-04-15T20:40:28;9.15;;;2.22;;
48911;SDS011;34722;52.108;5.044;2023-04-15T20:43:00;9.35;;;2.50;;
48911;SDS011;34722;52.108;5.044;2023-04-15T20:45:27;4.43;;;2.33;;
48911;SDS011;34722;52.108;5.044;2023-04-15T20:47:53;5.30;;;1.88;;
48911;SDS011;34722;52.108;5.044;2023-04-15T21:27:09;9.95;;;3.03;;
48911;SDS011;34722;52.108;5.044;2023-04-15T21:29:34;13.43;;;2.05;;
48911;SDS011;34722;52.108;5.044;2023-04-15T21:32:00;8.25;;;2.25;;
48911;SDS011;34722;52.108;5.044;2023-04-15T21:34:40;10.55;;;2.38;;
48911;SDS011;34722;52.108;5.044;2023-04-15T21:43:45;18.75;;;2.40;;
48911;SDS011;34722;52.108;5.044;2023-04-15T23:01:49;13.00;;;4.38;;
48911;SDS011;34722;52.108;5.044;2023-04-15T23:07:43;18.60;;;5.28;;
48911;SDS011;34722;52.108;5.044;2023-04-15T23:40:25;18.38;;;5.15;;
